createdAt,value
2023-03-23T15:58:22.372Z,3.53
2023-03-23T16:00:51.956Z,2.75
2023-03-23T16:03:25.182Z,3.75
2023-03-23T16:05:51.981Z,4.10
2023-03-23T16:08:18.494Z,3.42
2023-03-23T16:10:45.130Z,3.60
2023-03-23T16:13:11.835Z,3.92
2023-03-23T16:15:39.941Z,4.32
2023-03-23T16:18:06.915Z,4.07
2023-03-23T16:20:33.746Z,3.72
2023-03-23T16:23:01.085Z,4.30
2023-03-23T16:25:27.631Z,3.78
2023-03-23T16:27:54.522Z,3.78
2023-03-23T16:30:25.632Z,4.18
2023-03-23T16:32:55.418Z,4.00
2023-03-23T16:35:23.783Z,4.13
2023-03-23T16:38:08.309Z,4.25
2023-03-23T16:40:36.881Z,4.10
2023-03-23T16:43:08.405Z,3.60
2023-03-23T16:45:43.142Z,4.20
2023-03-23T16:48:10.944Z,4.05
2023-03-23T16:50:38.175Z,4.28
2023-03-23T16:53:06.669Z,3.55
2023-03-23T16:55:33.694Z,4.28
2023-03-23T16:58:15.358Z,4.15
2023-03-23T17:00:45.638Z,4.50
2023-03-23T17:03:13.351Z,3.70
2023-03-23T17:05:40.178Z,4.38
2023-03-23T17:08:07.298Z,4.15
2023-03-23T17:10:33.822Z,4.60
2023-03-23T17:13:00.405Z,3.85
2023-03-23T17:15:26.928Z,4.10
2023-03-23T17:17:55.037Z,4.07
2023-03-23T17:20:22.268Z,3.78
2023-03-23T17:22:48.968Z,4.32
2023-03-23T17:25:15.687Z,4.53
2023-03-23T17:27:42.757Z,3.90
2023-03-23T17:30:10.931Z,4.28
2023-03-23T17:32:38.402Z,4.05
2023-03-23T17:35:06.475Z,3.97
2023-03-23T17:37:33.385Z,4.10
2023-03-23T17:40:00.171Z,3.78
2023-03-23T17:42:27.182Z,3.80
2023-03-23T17:44:53.903Z,4.72
2023-03-23T17:47:20.563Z,4.45
2023-03-23T17:49:47.860Z,3.95
2023-03-23T17:52:14.561Z,3.42
2023-03-23T17:54:41.206Z,3.67
2023-03-23T17:57:07.784Z,3.67
2023-03-23T17:59:34.422Z,4.20
2023-03-23T18:02:01.023Z,3.67
2023-03-23T18:04:27.681Z,3.95
2023-03-23T18:06:56.375Z,3.65
2023-03-23T18:09:23.410Z,3.63
2023-03-23T18:11:49.980Z,3.30
2023-03-23T18:14:16.592Z,4.03
2023-03-23T18:16:43.254Z,3.85
2023-03-23T18:19:10.124Z,3.20
2023-03-23T18:21:36.576Z,3.40
2023-03-23T18:24:03.600Z,3.80
2023-03-23T18:26:30.352Z,3.85
2023-03-23T18:28:56.960Z,3.05
2023-03-23T18:31:23.940Z,4.03
2023-03-23T18:33:51.558Z,4.03
2023-03-23T18:36:20.798Z,3.35
2023-03-23T18:38:48.727Z,3.38
2023-03-23T18:41:16.283Z,3.05
2023-03-23T18:43:43.457Z,3.20
2023-03-23T18:46:10.250Z,3.45
2023-03-23T18:48:37.530Z,3.60
2023-03-23T18:51:04.478Z,3.15
2023-03-23T18:53:31.549Z,3.20
2023-03-23T18:56:07.438Z,3.13
2023-03-23T18:58:34.160Z,3.45
2023-03-23T19:01:07.109Z,2.90
2023-03-23T19:03:35.199Z,3.13
2023-03-23T19:06:02.314Z,3.17
2023-03-23T19:08:29.567Z,3.47
2023-03-23T19:11:02.425Z,2.65
2023-03-23T19:13:31.230Z,3.60
2023-03-23T19:15:58.005Z,3.20
2023-03-23T19:18:24.460Z,2.70
2023-03-23T19:21:13.464Z,2.60
2023-03-23T19:23:41.738Z,3.42
2023-03-23T19:26:08.412Z,2.80
2023-03-23T19:31:05.030Z,3.20
2023-03-23T19:33:31.519Z,3.00
2023-03-23T19:36:09.289Z,3.00
2023-03-23T19:38:38.249Z,2.60
2023-03-23T19:41:05.834Z,2.28
2023-03-23T19:43:32.829Z,2.60
2023-03-23T19:46:00.720Z,2.70
2023-03-23T19:48:27.319Z,2.90
2023-03-23T19:50:55.784Z,2.80
2023-03-23T19:53:23.112Z,2.55
2023-03-23T19:55:50.599Z,2.45
2023-03-23T19:58:17.373Z,2.20
2023-03-23T20:00:45.289Z,2.47
2023-03-23T20:03:12.561Z,2.45
2023-03-23T20:05:40.750Z,2.65
2023-03-23T20:08:09.808Z,2.30
2023-03-23T20:10:36.942Z,2.95
2023-03-23T20:13:06.362Z,2.17
2023-03-23T20:15:33.357Z,2.70
2023-03-23T20:18:00.589Z,2.10
2023-03-23T20:20:28.301Z,2.72
2023-03-23T20:22:57.381Z,2.30
2023-03-23T20:25:24.937Z,2.25
2023-03-23T20:27:51.652Z,2.17
2023-03-23T20:30:18.790Z,2.33
2023-03-23T20:32:46.448Z,1.90
2023-03-23T20:35:14.745Z,2.20
2023-03-23T20:37:41.596Z,2.20
2023-03-23T20:40:14.666Z,2.08
2023-03-23T20:42:44.095Z,2.38
2023-03-23T20:45:13.037Z,1.70
2023-03-23T20:47:41.135Z,2.20
2023-03-23T20:50:10.085Z,2.08
2023-03-23T20:52:36.979Z,2.00
2023-03-23T20:55:04.548Z,2.05
2023-03-23T20:57:31.130Z,1.80
2023-03-23T20:59:58.026Z,1.83
2023-03-23T21:02:29.762Z,1.90
2023-03-23T21:04:58.106Z,2.00
2023-03-23T21:07:27.432Z,1.85
2023-03-23T21:09:53.932Z,1.80
2023-03-23T21:12:20.406Z,1.80
2023-03-23T21:14:47.788Z,2.00
2023-03-23T21:17:14.499Z,1.80
2023-03-23T21:19:41.306Z,1.67
2023-03-23T21:22:09.654Z,1.50
2023-03-23T21:24:38.522Z,1.83
2023-03-23T21:27:05.390Z,1.67
2023-03-23T21:29:32.736Z,1.60
2023-03-23T21:34:28.693Z,1.60
2023-03-23T21:36:55.427Z,1.67
2023-03-23T21:39:22.472Z,1.60
2023-03-23T21:41:49.748Z,1.80
2023-03-23T21:44:18.104Z,1.38
2023-03-23T21:46:45.345Z,1.55
2023-03-23T21:49:14.112Z,1.60
2023-03-23T21:51:41.665Z,1.85
2023-03-23T21:54:09.994Z,1.40
2023-03-23T21:56:36.910Z,1.48
2023-03-23T21:59:04.735Z,1.45
2023-03-23T22:01:31.488Z,1.80
2023-03-23T22:03:58.215Z,1.48
2023-03-23T22:06:30.962Z,1.48
2023-03-23T22:08:57.505Z,1.75
2023-03-23T22:11:26.692Z,1.55
2023-03-23T22:13:55.115Z,1.40
2023-03-23T22:16:22.501Z,1.70
2023-03-23T22:18:51.311Z,1.48
2023-03-23T22:21:19.871Z,1.40
2023-03-23T22:23:46.717Z,1.35
2023-03-23T22:26:15.389Z,1.38
2023-03-23T22:28:43.364Z,1.20
2023-03-23T22:31:19.657Z,1.50
2023-03-23T22:33:47.674Z,1.20
2023-03-23T22:36:15.438Z,1.13
2023-03-23T22:38:44.371Z,1.30
2023-03-23T22:41:17.658Z,1.70
2023-03-23T22:43:44.916Z,1.33
2023-03-23T22:46:11.481Z,1.38
2023-03-23T22:48:38.213Z,1.10
2023-03-23T22:51:04.876Z,1.38
2023-03-23T22:53:31.690Z,1.38
2023-03-23T22:55:58.618Z,1.30
2023-03-23T22:58:26.842Z,1.17
2023-03-23T23:01:02.762Z,1.20
2023-03-23T23:03:30.422Z,1.17
2023-03-23T23:05:58.482Z,1.30
2023-03-23T23:08:27.397Z,1.20
2023-03-23T23:10:56.105Z,1.10
2023-03-23T23:13:23.880Z,0.95
2023-03-23T23:15:53.118Z,1.00
2023-03-23T23:18:20.749Z,1.38
2023-03-23T23:20:52.376Z,1.05
2023-03-23T23:23:19.136Z,1.73
2023-03-23T23:25:45.912Z,1.10
2023-03-23T23:28:13.065Z,1.00
2023-03-23T23:30:39.811Z,1.00
2023-03-23T23:33:09.320Z,1.10
2023-03-23T23:35:37.894Z,1.13
2023-03-23T23:38:06.896Z,0.93
2023-03-23T23:40:35.293Z,1.00
2023-03-23T23:43:03.488Z,0.95
2023-03-23T23:45:30.302Z,1.00
2023-03-23T23:47:57.792Z,0.90
2023-03-23T23:50:24.819Z,0.77
2023-03-23T23:52:52.310Z,1.17
2023-03-23T23:55:20.118Z,0.93
2023-03-23T23:57:48.226Z,1.20
